createdAt,value
2016-09-13T00:00:14.671Z,23.18
2016-09-13T00:01:24.963Z,23.16
2016-09-13T00:02:34.656Z,23.09
2016-09-13T00:03:44.628Z,23.12
2016-09-13T00:04:54.919Z,23.16
2016-09-13T00:06:04.920Z,23.09
2016-09-13T00:07:15.217Z,23.06
2016-09-13T00:08:25.531Z,23.07
2016-09-13T00:09:35.548Z,23.03
2016-09-13T00:10:45.859Z,23.01
2016-09-13T00:11:55.252Z,22.91
2016-09-13T00:13:05.542Z,23.01
2016-09-13T00:14:15.222Z,22.94
2016-09-13T00:15:25.203Z,22.89
2016-09-13T00:16:35.181Z,22.99
2016-09-13T00:17:44.893Z,22.82
2016-09-13T00:18:53.937Z,22.81
2016-09-13T00:20:04.229Z,22.91
2016-09-13T00:21:14.222Z,22.85
2016-09-13T00:22:24.515Z,22.82
2016-09-13T00:23:33.885Z,22.82
2016-09-13T00:24:43.561Z,22.81
2016-09-13T00:25:53.868Z,22.79
2016-09-13T00:27:04.169Z,22.7
2016-09-13T00:28:14.460Z,22.75
2016-09-13T00:29:24.759Z,22.7
2016-09-13T00:30:35.040Z,22.76
2016-09-13T00:31:45.345Z,22.64
2016-09-13T00:32:55.323Z,22.69
2016-09-13T00:34:04.996Z,22.7
2016-09-13T00:35:14.978Z,22.7
2016-09-13T00:36:24.989Z,22.67
2016-09-13T00:37:35.280Z,22.73
2016-09-13T00:38:45.599Z,22.63
2016-09-13T00:39:55.583Z,22.69
2016-09-13T00:41:05.889Z,22.67
2016-09-13T00:42:15.871Z,22.69
2016-09-13T00:43:25.857Z,22.63
2016-09-13T00:44:35.845Z,22.57
2016-09-13T00:45:45.526Z,22.59
2016-09-13T00:46:55.509Z,22.55
2016-09-13T00:48:05.492Z,22.55
2016-09-13T00:49:15.792Z,22.51
2016-09-13T00:50:26.094Z,22.49
2016-09-13T00:51:35.760Z,22.51
2016-09-13T00:52:46.054Z,22.48
2016-09-13T00:53:55.737Z,22.46
2016-09-13T00:55:05.716Z,22.51
2016-09-13T00:56:15.712Z,22.52
2016-09-13T00:57:25.999Z,22.46
2016-09-13T00:58:36.278Z,22.46
2016-09-13T00:59:45.952Z,22.49
2016-09-13T01:00:55.935Z,22.45
2016-09-13T01:02:06.231Z,22.38
2016-09-13T01:03:16.507Z,22.42
2016-09-13T01:04:26.474Z,22.38
2016-09-13T01:05:36.150Z,22.31
2016-09-13T01:06:45.514Z,22.27
2016-09-13T01:07:55.504Z,22.3
2016-09-13T01:09:05.465Z,22.29
2016-09-13T01:10:15.752Z,22.24
2016-09-13T01:11:25.730Z,22.24
2016-09-13T01:12:36.024Z,22.27
2016-09-13T01:13:46.322Z,22.23
2016-09-13T01:14:56.314Z,22.18
2016-09-13T01:16:06.621Z,22.23
2016-09-13T01:17:16.601Z,22.23
2016-09-13T01:18:26.581Z,22.2
2016-09-13T01:19:36.882Z,22.2
2016-09-13T01:20:46.883Z,22.24
2016-09-13T01:21:56.555Z,22.15
2016-09-13T01:23:06.842Z,22.26
2016-09-13T01:24:16.819Z,22.24
2016-09-13T01:25:27.103Z,22.15
2016-09-13T01:26:37.388Z,22.16
2016-09-13T01:27:47.693Z,22.22
2016-09-13T01:28:57.669Z,22.12
2016-09-13T01:30:07.963Z,22.14
2016-09-13T01:31:18.245Z,22.18
2016-09-13T01:32:28.229Z,22.15
2016-09-13T01:33:38.524Z,22.14
2016-09-13T01:34:48.515Z,22.22
2016-09-13T01:35:58.189Z,22.15
2016-09-13T01:37:08.506Z,22.14
2016-09-13T01:38:18.497Z,22.18
2016-09-13T01:39:28.492Z,22.24
2016-09-13T01:40:38.796Z,22.16
2016-09-13T01:41:48.789Z,22.2
2016-09-13T01:42:59.100Z,22.15
2016-09-13T01:44:09.406Z,22.2
2016-09-13T01:45:19.394Z,22.22
2016-09-13T01:46:29.398Z,22.16
2016-09-13T01:47:39.686Z,22.09
2016-09-13T01:48:49.973Z,22.05
2016-09-13T01:49:59.343Z,22.07
2016-09-13T01:51:09.006Z,21.99
2016-09-13T01:52:18.980Z,21.99
2016-09-13T01:53:28.951Z,22.05
2016-09-13T01:54:38.943Z,22
2016-09-13T01:55:49.469Z,21.94
2016-09-13T01:56:59.766Z,22.02
2016-09-13T01:58:10.048Z,22.04
2016-09-13T01:59:20.034Z,21.96
2016-09-13T02:00:29.735Z,22
2016-09-13T02:01:39.732Z,21.99
2016-09-13T02:02:50.018Z,21.96
2016-09-13T02:04:00.002Z,21.94
2016-09-13T02:05:09.978Z,21.93
2016-09-13T02:06:19.954Z,21.94
2016-09-13T02:07:30.259Z,21.92
2016-09-13T02:08:40.547Z,21.89
2016-09-13T02:09:50.528Z,21.93
2016-09-13T02:11:00.802Z,21.9
2016-09-13T02:12:11.029Z,21.93
2016-09-13T02:13:21.329Z,21.92
2016-09-13T02:14:31.313Z,21.9
2016-09-13T02:15:41.598Z,21.94
2016-09-13T02:16:51.880Z,21.82
2016-09-13T02:18:01.559Z,21.82
2016-09-13T02:19:11.852Z,21.8
2016-09-13T02:20:21.828Z,21.8
2016-09-13T02:21:31.516Z,21.85
2016-09-13T02:22:41.483Z,21.85
2016-09-13T02:23:51.471Z,21.8
2016-09-13T02:25:01.776Z,21.85
2016-09-13T02:26:12.063Z,21.89
2016-09-13T02:27:22.348Z,21.9
2016-09-13T02:28:32.348Z,21.93
2016-09-13T02:29:42.339Z,21.86
2016-09-13T02:30:52.320Z,21.85
2016-09-13T02:32:02.618Z,21.82
2016-09-13T02:33:12.607Z,21.82
2016-09-13T02:34:22.904Z,21.86
2016-09-13T02:35:32.886Z,21.74
2016-09-13T02:36:42.873Z,21.82
2016-09-13T02:37:53.166Z,21.82
2016-09-13T02:39:02.841Z,21.83
2016-09-13T02:40:12.518Z,21.71
2016-09-13T02:41:22.499Z,21.73
2016-09-13T02:42:32.776Z,21.74
2016-09-13T02:43:43.058Z,21.77
2016-09-13T02:44:53.344Z,21.71
2016-09-13T02:46:03.636Z,21.71
2016-09-13T02:47:13.613Z,21.74
2016-09-13T02:48:23.915Z,21.71
2016-09-13T02:49:33.907Z,21.71
2016-09-13T02:50:44.200Z,21.73
2016-09-13T02:51:54.494Z,21.76
2016-09-13T02:53:04.473Z,21.77
2016-09-13T02:54:14.778Z,21.8
2016-09-13T02:55:24.748Z,21.67
2016-09-13T02:56:35.047Z,21.71
2016-09-13T02:57:45.033Z,21.73
2016-09-13T02:58:55.321Z,21.74
2016-09-13T03:00:05.632Z,21.74
2016-09-13T03:32:36.970Z,18.39
2016-09-13T03:33:46.952Z,18.32
2016-09-13T03:34:56.928Z,18.31
2016-09-13T03:36:06.939Z,18.32
2016-09-13T03:37:16.918Z,18.38
2016-09-13T03:38:26.584Z,18.47
2016-09-13T03:39:36.875Z,18.51
2016-09-13T03:40:46.527Z,18.68
2016-09-13T03:41:56.817Z,18.9
2016-09-13T03:43:06.794Z,19
2016-09-13T03:44:16.461Z,19.02
2016-09-13T03:45:26.434Z,19.2
2016-09-13T03:46:36.725Z,19.37
2016-09-13T03:47:47.010Z,19.49
2016-09-13T03:48:56.685Z,19.61
2016-09-13T03:50:06.971Z,19.67
2016-09-13T03:51:16.948Z,19.78
2016-09-13T03:52:27.229Z,19.83
2016-09-13T03:53:36.897Z,20.01
2016-09-13T03:54:47.431Z,19.97
2016-09-13T03:55:57.707Z,20.11
2016-09-13T03:57:07.991Z,20.26
2016-09-13T03:58:17.353Z,20.29
2016-09-13T03:59:27.340Z,20.32
2016-09-13T04:00:37.645Z,20.35
2016-09-13T04:01:47.928Z,20.46
2016-09-13T04:02:57.918Z,20.53
2016-09-13T04:04:07.898Z,20.6
2016-09-13T04:05:17.861Z,20.61
2016-09-13T04:06:27.532Z,20.66
2016-09-13T04:07:37.832Z,20.72
2016-09-13T04:08:48.117Z,20.68
2016-09-13T04:09:57.809Z,20.71
2016-09-13T04:11:08.109Z,20.68
2016-09-13T04:12:18.411Z,20.74
2016-09-13T04:13:28.703Z,20.78
2016-09-13T04:14:38.687Z,20.82
2016-09-13T04:15:48.668Z,20.83
2016-09-13T04:16:58.656Z,20.79
2016-09-13T04:18:08.946Z,20.82
2016-09-13T04:19:18.937Z,20.85
2016-09-13T04:20:29.228Z,20.9
2016-09-13T04:21:39.525Z,20.93
2016-09-13T04:22:49.184Z,20.98
2016-09-13T04:23:59.474Z,21.01
2016-09-13T04:25:09.755Z,21.08
2016-09-13T04:26:20.054Z,21.09
2016-09-13T04:27:30.043Z,21.06
2016-09-13T04:28:40.025Z,21.11
2016-09-13T04:29:49.998Z,21.04
2016-09-13T04:30:59.985Z,21.12
2016-09-13T04:32:10.281Z,21.06
2016-09-13T04:33:20.264Z,21.06
2016-09-13T04:34:29.936Z,21.15
2016-09-13T04:35:40.227Z,21.18
2016-09-13T04:36:50.227Z,21.15
2016-09-13T04:38:00.538Z,21.19
2016-09-13T04:39:10.841Z,21.11
2016-09-13T04:40:20.831Z,21.18
2016-09-13T04:41:30.524Z,21.18
2016-09-13T04:42:40.495Z,21.06
2016-09-13T04:43:50.474Z,21.21
2016-09-13T04:45:00.453Z,21.23
2016-09-13T04:46:10.734Z,21.33
2016-09-13T04:47:20.719Z,21.33
2016-09-13T04:48:30.717Z,21.3
2016-09-13T04:49:41.004Z,21.36
2016-09-13T04:50:50.675Z,21.46
2016-09-13T04:52:00.363Z,21.49
2016-09-13T04:53:10.345Z,21.41
2016-09-13T04:54:20.329Z,21.56
2016-09-13T04:55:30.612Z,21.56
2016-09-13T04:56:40.844Z,21.61
2016-09-13T04:57:50.832Z,21.58
2016-09-13T04:59:00.506Z,21.59
2016-09-13T05:00:10.788Z,21.74
2016-09-13T05:01:21.072Z,21.73
2016-09-13T05:02:31.363Z,21.74
2016-09-13T05:03:41.658Z,21.85
2016-09-13T05:04:51.640Z,21.86
2016-09-13T05:06:01.924Z,21.97
2016-09-13T05:07:12.208Z,21.94
2016-09-13T05:08:22.177Z,22.05
2016-09-13T05:09:32.470Z,22.23
2016-09-13T05:10:42.150Z,22.23
2016-09-13T05:11:51.831Z,22.2
2016-09-13T05:13:02.126Z,22.2
2016-09-13T05:14:12.409Z,22.3
2016-09-13T05:15:22.399Z,22.36
2016-09-13T05:16:32.385Z,22.44
2016-09-13T05:17:42.361Z,22.48
2016-09-13T05:18:52.027Z,22.46
2016-09-13T05:20:01.708Z,22.54
2016-09-13T05:21:11.680Z,22.55
2016-09-13T05:22:21.661Z,22.57
2016-09-13T05:23:31.948Z,22.67
2016-09-13T05:24:42.242Z,22.61
2016-09-13T05:25:52.219Z,22.84
2016-09-13T05:27:02.207Z,22.91
2016-09-13T05:28:12.206Z,22.88
2016-09-13T05:29:21.873Z,22.97
2016-09-13T05:30:32.172Z,22.96
2016-09-13T05:31:42.176Z,23.03
2016-09-13T05:32:52.172Z,23.07
2016-09-13T05:34:02.475Z,23.12
2016-09-13T05:35:12.485Z,23.22
2016-09-13T05:36:22.788Z,23.25
2016-09-13T05:37:32.779Z,23.24
2016-09-13T05:38:43.065Z,23.24
2016-09-13T05:39:53.054Z,23.25
2016-09-13T05:41:03.339Z,23.38
2016-09-13T05:42:13.331Z,23.41
2016-09-13T05:43:23.307Z,23.44
2016-09-13T05:44:33.597Z,23.53
2016-09-13T05:45:43.903Z,23.59
2016-09-13T05:46:54.201Z,23.63
2016-09-13T05:48:04.505Z,23.71
2016-09-13T05:49:14.797Z,23.78
2016-09-13T05:50:25.101Z,23.84
2016-09-13T05:51:35.404Z,23.84
2016-09-13T05:52:45.395Z,23.87
2016-09-13T05:53:55.383Z,23.92
2016-09-13T05:55:05.063Z,23.89
2016-09-13T05:56:14.745Z,24.04
2016-09-13T05:57:24.434Z,24.04
2016-09-13T05:58:34.733Z,24.07
2016-09-13T05:59:44.711Z,24.04
2016-09-13T06:00:54.711Z,24.18
2016-09-13T06:02:04.729Z,24.18
2016-09-13T06:03:15.021Z,24.26
2016-09-13T06:04:25.018Z,24.3
2016-09-13T06:05:35.330Z,24.32
2016-09-13T06:06:45.643Z,24.32
2016-09-13T06:07:55.016Z,24.4
2016-09-13T06:09:05.324Z,24.4
2016-09-13T06:10:15.316Z,24.51
2016-09-13T06:11:24.682Z,24.58
2016-09-13T06:12:34.349Z,24.7
2016-09-13T06:13:44.670Z,24.64
2016-09-13T06:14:54.669Z,24.75
2016-09-13T06:16:04.965Z,24.67
2016-09-13T06:17:15.273Z,24.8
2016-09-13T06:18:24.937Z,24.85
2016-09-13T06:19:35.241Z,24.8
2016-09-13T06:20:45.210Z,24.87
2016-09-13T06:21:55.507Z,25
2016-09-13T06:23:05.804Z,25.07
2016-09-13T06:24:15.790Z,25.04
2016-09-13T06:25:25.792Z,25.12
2016-09-13T06:26:35.766Z,25.17
2016-09-13T06:27:46.078Z,25.12
2016-09-13T06:28:56.078Z,25.29
2016-09-13T06:30:06.068Z,25.32
2016-09-13T06:31:16.046Z,25.33
2016-09-13T06:32:26.041Z,25.33
2016-09-13T06:33:36.024Z,25.39
2016-09-13T06:34:46.315Z,25.48
2016-09-13T06:35:55.687Z,25.52
2016-09-13T06:37:05.378Z,25.49
2016-09-13T06:38:15.659Z,25.54
2016-09-13T06:39:25.662Z,25.54
2016-09-13T06:40:35.962Z,25.69
2016-09-13T06:41:45.950Z,25.57
2016-09-13T06:42:56.228Z,25.6
2016-09-13T06:44:06.530Z,25.71
2016-09-13T06:45:16.530Z,25.82
2016-09-13T06:46:26.528Z,25.85
2016-09-13T06:47:36.824Z,25.86
2016-09-13T06:48:47.129Z,25.89
2016-09-13T06:49:57.127Z,25.91
2016-09-13T06:51:07.433Z,26
2016-09-13T06:52:17.417Z,25.96
2016-09-13T06:53:27.412Z,26.03
2016-09-13T06:54:37.691Z,26.19
2016-09-13T06:55:47.983Z,26.16
2016-09-13T06:56:57.982Z,26.19
2016-09-13T06:58:08.308Z,26.24
2016-09-13T06:59:18.600Z,26.3
2016-09-13T07:00:28.894Z,26.41
2016-09-13T07:01:38.570Z,26.41
2016-09-13T07:02:48.881Z,26.41
2016-09-13T07:03:58.245Z,26.49
2016-09-13T07:05:08.250Z,26.54
2016-09-13T07:06:18.248Z,26.6
2016-09-13T07:07:28.245Z,26.63
2016-09-13T07:08:37.940Z,26.71
2016-09-13T07:09:47.933Z,26.67
2016-09-13T07:10:58.244Z,26.74
2016-09-13T07:12:07.620Z,26.79
2016-09-13T07:13:17.619Z,26.81
2016-09-13T07:14:27.604Z,26.96
2016-09-13T07:15:37.608Z,26.91
2016-09-13T07:16:47.888Z,26.94
2016-09-13T07:17:57.894Z,26.93
2016-09-13T07:19:07.578Z,27.08
2016-09-13T07:20:17.592Z,27.11
2016-09-13T07:21:27.589Z,27.15
2016-09-13T07:22:37.280Z,27.19
2016-09-13T07:23:47.268Z,27.19
2016-09-13T07:24:57.584Z,27.27
2016-09-13T07:26:07.582Z,27.38
2016-09-13T07:27:17.598Z,27.41
2016-09-13T07:28:27.600Z,27.49
2016-09-13T07:29:37.582Z,27.52
2016-09-13T07:30:47.583Z,27.62
2016-09-13T07:31:57.567Z,27.71
2016-09-13T07:33:07.876Z,27.65
2016-09-13T07:34:17.868Z,27.75
2016-09-13T07:35:27.860Z,27.84
2016-09-13T07:36:38.143Z,27.96
2016-09-13T07:37:48.437Z,27.99
2016-09-13T07:38:58.740Z,28.03
2016-09-13T07:40:09.038Z,28.08
2016-09-13T07:41:19.334Z,28.23
2016-09-13T07:42:29.339Z,28.2
2016-09-13T07:43:39.328Z,28.14
2016-09-13T07:44:49.318Z,28.3
2016-09-13T07:45:58.987Z,28.28
2016-09-13T07:47:09.303Z,28.35
2016-09-13T07:48:18.370Z,28.39
2016-09-13T07:49:28.357Z,28.45
2016-09-13T07:50:38.370Z,28.48
2016-09-13T07:51:48.361Z,28.63
2016-09-13T07:52:58.364Z,28.67
2016-09-13T07:54:08.663Z,28.72
2016-09-13T07:55:18.646Z,28.83
2016-09-13T07:56:28.648Z,29.01
2016-09-13T07:57:38.931Z,28.91
2016-09-13T07:58:48.922Z,28.98
2016-09-13T07:59:58.299Z,29.03
2016-09-13T08:01:08.605Z,29.11
2016-09-13T08:02:18.907Z,29.26
2016-09-13T08:03:29.198Z,29.24
2016-09-13T08:04:39.166Z,29.35
2016-09-13T08:05:49.457Z,29.39
2016-09-13T08:06:59.139Z,29.45
2016-09-13T08:08:09.441Z,29.48
2016-09-13T08:09:19.757Z,29.54
2016-09-13T08:10:29.764Z,29.52
2016-09-13T08:11:40.056Z,29.61
2016-09-13T08:12:50.368Z,29.66
2016-09-13T08:14:00.670Z,29.65
2016-09-13T08:15:10.989Z,29.63
2016-09-13T08:16:21.288Z,29.76
2016-09-13T08:17:31.283Z,29.77
2016-09-13T08:18:41.265Z,29.88
2016-09-13T08:19:51.570Z,29.92
2016-09-13T08:21:01.276Z,29.92
2016-09-13T08:22:11.573Z,29.94
2016-09-13T08:23:21.905Z,30.02
2016-09-13T08:24:32.214Z,30.1
2016-09-13T08:25:41.588Z,30.06
2016-09-13T08:26:51.901Z,30.13
2016-09-13T08:28:02.228Z,30.24
2016-09-13T08:29:12.221Z,30.34
2016-09-13T08:30:22.526Z,30.35
2016-09-13T08:31:32.514Z,30.44
2016-09-13T08:32:42.208Z,30.52
2016-09-13T08:33:51.886Z,30.62
2016-09-13T08:35:00.942Z,30.54
2016-09-13T08:36:11.234Z,30.64
2016-09-13T08:37:21.531Z,30.57
2016-09-13T08:38:31.518Z,30.63
2016-09-13T08:39:41.191Z,30.62
2016-09-13T08:40:51.503Z,30.71
2016-09-13T08:42:01.486Z,30.67
2016-09-13T08:43:11.171Z,30.77
2016-09-13T08:44:20.847Z,30.85
2016-09-13T08:45:30.850Z,30.94
2016-09-13T08:46:40.547Z,31
2016-09-13T08:47:50.543Z,31.1
2016-09-13T08:48:59.926Z,31.01
2016-09-13T08:50:10.238Z,31.16
2016-09-13T08:51:20.523Z,31.18
2016-09-13T08:52:30.530Z,31.23
2016-09-13T08:53:40.212Z,31.23
2016-09-13T08:54:49.893Z,31.34
2016-09-13T08:56:00.185Z,31.3
2016-09-13T08:57:10.487Z,31.28
2016-09-13T08:58:20.790Z,31.31
2016-09-13T08:59:30.798Z,31.34
2016-09-13T09:00:40.790Z,31.33
2016-09-13T09:01:50.781Z,31.41
2016-09-13T09:03:00.771Z,31.38
2016-09-13T09:04:11.067Z,31.43
2016-09-13T09:05:21.359Z,31.55
2016-09-13T09:06:30.736Z,31.5
2016-09-13T09:07:41.033Z,31.6
2016-09-13T09:08:51.326Z,31.71
2016-09-13T09:10:01.624Z,31.74
2016-09-13T09:11:11.918Z,31.87
2016-09-13T09:12:22.225Z,31.8
2016-09-13T09:13:32.211Z,31.94
2016-09-13T09:14:41.907Z,32.06
2016-09-13T09:15:51.300Z,32.05
2016-09-13T09:17:01.603Z,32.19
2016-09-13T09:18:11.913Z,32.17
2016-09-13T09:19:21.290Z,32.13
2016-09-13T09:20:31.597Z,32.17
2016-09-13T09:21:40.978Z,32.17
2016-09-13T09:22:50.965Z,32.15
2016-09-13T09:24:00.647Z,32.31
2016-09-13T09:25:10.348Z,32.27
2016-09-13T09:26:20.330Z,32.39
2016-09-13T09:27:30.319Z,32.39
2016-09-13T09:28:40.301Z,32.37
2016-09-13T09:29:50.606Z,32.38
2016-09-13T09:31:00.603Z,32.35
2016-09-13T09:32:10.284Z,32.35
2016-09-13T09:33:19.976Z,32.37
2016-09-13T09:34:29.977Z,32.45
2016-09-13T09:35:40.283Z,32.43
2016-09-13T09:36:50.580Z,32.38
2016-09-13T09:38:00.583Z,32.46
2016-09-13T09:39:10.574Z,32.5
2016-09-13T09:40:20.887Z,32.61
2016-09-13T09:41:31.422Z,32.65
2016-09-13T09:42:40.791Z,32.67
2016-09-13T09:43:50.771Z,32.64
2016-09-13T09:45:00.773Z,32.72
2016-09-13T09:46:11.066Z,32.76
2016-09-13T09:47:21.358Z,32.96
2016-09-13T09:48:31.653Z,32.93
2016-09-13T09:49:41.342Z,32.96
2016-09-13T09:50:51.647Z,32.87
2016-09-13T09:52:01.954Z,32.94
2016-09-13T09:53:11.941Z,32.9
2016-09-13T09:54:21.933Z,32.98
2016-09-13T09:55:31.948Z,33.02
2016-09-13T09:56:42.240Z,33.02
2016-09-13T09:57:52.547Z,33.16
2016-09-13T09:59:02.228Z,33.26
2016-09-13T10:00:12.241Z,33.18
2016-09-13T10:01:22.234Z,33.24
2016-09-13T10:02:32.553Z,33.26
2016-09-13T10:03:42.545Z,33.24
2016-09-13T10:04:52.857Z,33.31
2016-09-13T10:06:02.864Z,33.34
2016-09-13T10:07:13.153Z,33.32
2016-09-13T10:08:22.854Z,33.4
2016-09-13T10:09:32.537Z,33.39
2016-09-13T10:10:42.850Z,33.5
2016-09-13T10:11:52.552Z,33.53
2016-09-13T10:13:02.841Z,33.68
2016-09-13T10:14:12.888Z,33.73
2016-09-13T10:15:22.869Z,33.69
2016-09-13T10:16:32.866Z,33.81
2016-09-13T10:17:43.163Z,33.81
2016-09-13T10:18:53.166Z,33.83
2016-09-13T10:20:03.451Z,33.75
2016-09-13T10:21:13.137Z,33.75
2016-09-13T10:22:23.445Z,33.87
2016-09-13T10:23:33.751Z,33.89
2016-09-13T10:24:44.062Z,33.89
2016-09-13T10:25:54.046Z,33.81
2016-09-13T10:27:03.743Z,33.78
2016-09-13T10:28:14.056Z,33.87
2016-09-13T10:29:24.354Z,33.85
2016-09-13T10:30:34.668Z,33.87
2016-09-13T10:31:44.953Z,33.95
2016-09-13T10:32:54.945Z,33.92
2016-09-13T10:34:05.252Z,33.92
2016-09-13T10:35:14.944Z,33.97
2016-09-13T10:36:24.932Z,34.11
2016-09-13T10:37:34.919Z,34.12
2016-09-13T10:38:44.899Z,34.11
2016-09-13T10:39:55.195Z,34.05
2016-09-13T10:41:05.194Z,34.1
2016-09-13T10:42:15.504Z,34.11
2016-09-13T10:43:25.476Z,34.15
2016-09-13T10:44:35.773Z,34.15
2016-09-13T10:45:46.070Z,34.24
2016-09-13T10:46:56.066Z,34.12
2016-09-13T10:48:06.372Z,34.22
2016-09-13T10:49:15.766Z,34.19
2016-09-13T10:50:26.066Z,34.21
2016-09-13T10:51:36.353Z,34.15
2016-09-13T10:52:46.661Z,34.22
2016-09-13T10:53:56.949Z,34.3
2016-09-13T10:55:06.950Z,34.34
2016-09-13T10:56:17.250Z,34.36
2016-09-13T10:57:27.241Z,34.41
2016-09-13T10:58:37.248Z,34.37
2016-09-13T10:59:46.960Z,34.54
2016-09-13T11:00:57.271Z,34.72
2016-09-13T11:02:06.649Z,34.67
2016-09-13T11:03:16.650Z,34.83
2016-09-13T11:04:26.651Z,34.84
2016-09-13T11:05:36.338Z,34.81
2016-09-13T11:06:46.666Z,34.79
2016-09-13T11:07:56.359Z,34.81
2016-09-13T11:09:06.666Z,34.91
2016-09-13T11:10:16.661Z,34.87
2016-09-13T11:11:26.344Z,34.87
2016-09-13T11:12:36.346Z,34.9
2016-09-13T11:13:46.651Z,34.99
2016-09-13T11:14:56.975Z,34.9
2016-09-13T11:16:06.685Z,34.89
2016-09-13T11:17:17.007Z,35.02
2016-09-13T11:18:27.298Z,35.08
2016-09-13T11:19:37.609Z,35.23
2016-09-13T11:20:46.990Z,35.2
2016-09-13T11:21:57.296Z,35.16
2016-09-13T11:23:06.980Z,35.09
2016-09-13T11:24:17.310Z,35.12
2016-09-13T11:25:27.612Z,35.27
2016-09-13T11:26:37.294Z,35.16
2016-09-13T11:27:47.531Z,35.28
2016-09-13T11:28:57.828Z,35.16
2016-09-13T11:30:07.534Z,35.3
2016-09-13T11:31:17.526Z,35.33
2016-09-13T11:32:27.817Z,35.34
2016-09-13T11:33:38.113Z,35.3
2016-09-13T11:34:48.119Z,35.27
2016-09-13T11:35:58.425Z,35.4
2016-09-13T11:37:08.437Z,35.33
2016-09-13T11:38:18.456Z,35.35
2016-09-13T11:39:28.458Z,35.42
2016-09-13T11:40:38.442Z,35.46
2016-09-13T11:41:48.135Z,35.46
2016-09-13T11:42:57.821Z,35.42
2016-09-13T11:44:07.823Z,35.4
2016-09-13T11:45:18.129Z,35.4
2016-09-13T11:46:28.418Z,35.35
2016-09-13T11:47:38.409Z,35.4
2016-09-13T11:48:48.411Z,35.43
2016-09-13T11:49:58.408Z,35.5
2016-09-13T11:51:08.104Z,35.47
2016-09-13T11:52:18.164Z,35.6
2016-09-13T11:53:28.451Z,35.61
2016-09-13T11:54:38.445Z,35.55
2016-09-13T11:55:48.444Z,35.5
2016-09-13T11:56:58.762Z,35.68
2016-09-13T11:58:08.761Z,35.65
2016-09-13T11:59:19.054Z,35.68
2016-09-13T12:00:29.060Z,35.72
2016-09-13T12:01:39.367Z,35.71
2016-09-13T12:02:49.063Z,35.72
2016-09-13T12:03:59.055Z,35.72
2016-09-13T12:05:09.385Z,35.69
2016-09-13T12:06:19.382Z,35.68
2016-09-13T12:07:29.087Z,35.61
2016-09-13T12:08:39.100Z,35.65
2016-09-13T12:09:49.395Z,35.6
2016-09-13T12:10:59.382Z,35.68
2016-09-13T12:12:09.699Z,35.6
2016-09-13T12:13:20.008Z,35.69
2016-09-13T12:14:29.703Z,35.74
2016-09-13T12:15:39.991Z,35.72
2016-09-13T12:16:49.993Z,35.72
2016-09-13T12:18:00.015Z,35.69
2016-09-13T12:19:10.328Z,35.77
2016-09-13T12:20:20.039Z,35.74
2016-09-13T12:21:30.337Z,35.71
2016-09-13T12:22:40.015Z,35.67
2016-09-13T12:23:50.005Z,35.68
2016-09-13T12:25:00.334Z,35.62
2016-09-13T12:26:09.731Z,35.69
2016-09-13T12:27:20.016Z,35.67
2016-09-13T12:28:30.329Z,35.76
2016-09-13T12:29:40.336Z,35.8
2016-09-13T12:30:50.648Z,35.76
2016-09-13T12:32:00.669Z,35.8
2016-09-13T12:33:10.347Z,35.79
2016-09-13T12:34:20.355Z,35.77
2016-09-13T12:35:30.365Z,35.82
2016-09-13T12:36:40.679Z,35.76
2016-09-13T12:37:50.684Z,35.72
2016-09-13T12:39:00.675Z,35.69
2016-09-13T12:40:10.681Z,35.74
2016-09-13T12:41:20.691Z,35.67
2016-09-13T12:42:31.009Z,35.65
2016-09-13T12:43:41.324Z,35.67
2016-09-13T12:44:51.675Z,35.6
2016-09-13T12:46:02.000Z,35.64
2016-09-13T12:47:12.315Z,35.67
2016-09-13T12:48:22.314Z,35.71
2016-09-13T12:49:32.327Z,35.74
2016-09-13T12:50:42.639Z,35.76
2016-09-13T12:51:52.631Z,35.79
2016-09-13T12:53:02.688Z,35.96
2016-09-13T12:54:12.389Z,36.05
2016-09-13T12:55:22.090Z,36.06
2016-09-13T12:56:32.393Z,36.05
2016-09-13T12:57:42.689Z,36.12
2016-09-13T12:58:52.680Z,36.06
2016-09-13T13:00:02.637Z,36.06
2016-09-13T13:01:12.629Z,36.09
2016-09-13T13:02:22.941Z,35.9
2016-09-13T13:03:33.241Z,35.94
2016-09-13T13:04:43.239Z,35.86
2016-09-13T13:05:53.542Z,35.94
2016-09-13T13:07:03.533Z,35.96
2016-09-13T13:08:13.515Z,35.94
2016-09-13T13:09:23.826Z,35.92
2016-09-13T13:10:33.839Z,35.98
2016-09-13T13:11:43.862Z,35.98
2016-09-13T13:12:54.172Z,35.82
2016-09-13T13:14:04.489Z,35.87
2016-09-13T13:15:14.493Z,35.79
2016-09-13T13:16:24.481Z,35.65
2016-09-13T13:17:34.467Z,35.62
2016-09-13T13:18:44.759Z,35.65
2016-09-13T13:19:54.443Z,35.64
2016-09-13T13:21:04.441Z,35.64
2016-09-13T13:22:14.430Z,35.61
2016-09-13T13:23:24.762Z,35.6
2016-09-13T13:24:35.063Z,35.64
2016-09-13T13:25:45.373Z,35.65
2016-09-13T13:26:55.382Z,35.61
2016-09-13T13:28:05.393Z,35.61
2016-09-13T13:29:15.400Z,35.6
2016-09-13T13:30:25.705Z,35.55
2016-09-13T13:31:35.733Z,35.65
2016-09-13T13:32:45.744Z,35.6
2016-09-13T13:33:55.436Z,35.62
2016-09-13T13:35:05.127Z,35.61
2016-09-13T13:36:15.115Z,35.64
2016-09-13T13:37:25.136Z,35.65
2016-09-13T13:38:35.151Z,35.65
2016-09-13T13:39:45.162Z,35.57
2016-09-13T13:40:55.475Z,35.55
2016-09-13T13:42:05.458Z,35.67
2016-09-13T13:43:15.799Z,35.8
2016-09-13T13:44:26.090Z,35.98
2016-09-13T13:45:36.393Z,36.09
2016-09-13T13:46:46.074Z,36.08
2016-09-13T13:47:56.636Z,36.06
2016-09-13T13:49:06.636Z,36.09
2016-09-13T13:50:16.934Z,36.05
2016-09-13T13:51:26.921Z,36.04
2016-09-13T13:52:36.607Z,36.08
2016-09-13T13:53:46.919Z,36.09
2016-09-13T13:54:56.916Z,36.08
2016-09-13T13:56:07.233Z,36.06
2016-09-13T13:57:17.225Z,36.02
2016-09-13T13:58:27.518Z,36.06
2016-09-13T13:59:37.514Z,35.96
2016-09-13T14:00:47.542Z,35.94
2016-09-13T14:01:57.541Z,35.92
2016-09-13T14:03:07.237Z,35.98
2016-09-13T14:04:17.250Z,35.92
2016-09-13T14:05:27.573Z,35.98
2016-09-13T14:06:37.562Z,35.87
2016-09-13T14:07:47.570Z,35.9
2016-09-13T14:08:57.571Z,35.9
2016-09-13T14:10:07.269Z,35.89
2016-09-13T14:11:17.287Z,35.89
2016-09-13T14:12:26.985Z,35.94
2016-09-13T14:13:37.288Z,35.86
2016-09-13T14:14:47.600Z,35.82
2016-09-13T14:15:57.892Z,35.89
2016-09-13T14:17:08.204Z,35.92
2016-09-13T14:18:18.541Z,35.92
2016-09-13T14:19:28.561Z,35.89
2016-09-13T14:20:38.872Z,35.98
2016-09-13T14:21:48.875Z,35.98
2016-09-13T14:22:59.173Z,35.92
2016-09-13T14:24:08.855Z,35.98
2016-09-13T14:25:19.158Z,35.94
2016-09-13T14:26:29.447Z,35.98
2016-09-13T14:27:39.460Z,35.95
2016-09-13T14:28:49.451Z,35.94
2016-09-13T14:29:59.150Z,35.95
2016-09-13T14:31:09.142Z,35.82
2016-09-13T14:32:19.447Z,35.79
2016-09-13T14:33:29.443Z,35.83
2016-09-13T14:34:39.755Z,35.82
2016-09-13T14:35:50.056Z,35.79
2016-09-13T14:37:00.359Z,35.71
2016-09-13T14:38:10.672Z,35.62
2016-09-13T14:39:20.673Z,35.65
2016-09-13T14:40:30.986Z,35.62
2016-09-13T14:41:41.282Z,35.62
2016-09-13T14:42:51.283Z,35.58
2016-09-13T14:44:01.587Z,35.57
2016-09-13T14:45:11.020Z,35.4
2016-09-13T14:46:21.335Z,35.46
2016-09-13T14:47:31.641Z,35.42
2016-09-13T14:48:41.652Z,35.39
2016-09-13T14:49:51.950Z,35.4
2016-09-13T14:51:01.950Z,35.3
2016-09-13T14:52:12.258Z,35.34
2016-09-13T14:53:21.947Z,35.21
2016-09-13T14:54:31.937Z,35.09
2016-09-13T14:55:42.231Z,35.04
2016-09-13T14:56:52.221Z,34.9
2016-09-13T14:58:02.224Z,34.83
2016-09-13T14:59:11.909Z,34.89
2016-09-13T15:00:22.207Z,34.94
2016-09-13T15:01:32.493Z,34.9
2016-09-13T15:02:42.487Z,34.9
2016-09-13T15:03:52.163Z,34.89
2016-09-13T15:05:02.170Z,34.87
2016-09-13T15:06:12.494Z,34.79
2016-09-13T15:07:22.477Z,34.9
2016-09-13T15:08:32.778Z,34.83
2016-09-13T15:09:43.086Z,34.83
2016-09-13T15:10:52.767Z,34.75
2016-09-13T15:12:03.064Z,34.72
2016-09-13T15:13:13.087Z,34.64
2016-09-13T15:14:23.099Z,34.56
2016-09-13T15:15:33.406Z,34.49
2016-09-13T15:16:43.401Z,34.45
2016-09-13T15:17:53.705Z,34.46
2016-09-13T15:19:04.024Z,34.33
2016-09-13T15:20:14.326Z,34.34
2016-09-13T15:21:24.326Z,34.32
2016-09-13T15:22:34.623Z,34.4
2016-09-13T15:23:44.936Z,34.18
2016-09-13T15:24:55.264Z,34.19
2016-09-13T15:26:05.275Z,34.08
2016-09-13T15:27:15.573Z,34.02
2016-09-13T15:28:25.263Z,33.97
2016-09-13T15:29:35.256Z,33.9
2016-09-13T15:30:45.561Z,33.92
2016-09-13T15:31:55.275Z,33.81
2016-09-13T15:33:05.286Z,33.73
2016-09-13T15:34:15.588Z,33.75
2016-09-13T15:35:25.890Z,33.62
2016-09-13T15:36:36.191Z,33.55